createdAt,value
2023-02-24T00:02:05.065Z,100.00
2023-02-24T00:04:38.553Z,100.00
2023-02-24T00:07:11.639Z,100.00
2023-02-24T00:09:40.053Z,100.00
2023-02-24T00:12:13.065Z,100.00
2023-02-24T00:14:43.188Z,100.00
2023-02-24T00:17:14.643Z,100.00
2023-02-24T00:19:43.061Z,100.00
2023-02-24T00:22:12.897Z,100.00
2023-02-24T00:24:41.141Z,100.00
2023-02-24T00:27:11.268Z,100.00
2023-02-24T00:29:42.041Z,100.00
2023-02-24T00:32:14.888Z,100.00
2023-02-24T00:34:43.268Z,100.00
2023-02-24T00:37:12.148Z,100.00
2023-02-24T00:39:41.621Z,100.00
2023-02-24T00:42:12.273Z,100.00
2023-02-24T00:44:44.746Z,100.00
2023-02-24T00:47:14.179Z,100.00
2023-02-24T00:49:43.749Z,100.00
2023-02-24T00:52:17.108Z,100.00
2023-02-24T00:54:46.416Z,100.00
2023-02-24T00:57:18.236Z,100.00
2023-02-24T00:59:51.432Z,100.00
2023-02-24T01:02:20.524Z,100.00
2023-02-24T01:04:49.977Z,100.00
2023-02-24T01:07:18.053Z,100.00
2023-02-24T01:09:45.718Z,100.00
2023-02-24T01:12:32.591Z,100.00
2023-02-24T01:15:05.106Z,100.00
2023-02-24T01:17:36.393Z,100.00
2023-02-24T01:20:16.784Z,100.00
2023-02-24T01:22:50.803Z,100.00
2023-02-24T01:25:20.638Z,100.00
2023-02-24T01:27:49.111Z,100.00
2023-02-24T01:30:18.341Z,100.00
2023-02-24T01:32:47.443Z,100.00
2023-02-24T01:35:15.877Z,100.00
2023-02-24T01:37:45.516Z,100.00
2023-02-24T01:40:21.043Z,100.00
2023-02-24T01:42:49.672Z,100.00
2023-02-24T01:45:25.178Z,100.00
2023-02-24T01:48:00.225Z,100.00
2023-02-24T01:50:28.762Z,100.00
2023-02-24T01:53:02.221Z,100.00
2023-02-24T01:55:34.931Z,100.00
2023-02-24T01:58:10.142Z,100.00
2023-02-24T02:00:45.572Z,100.00
2023-02-24T02:03:22.425Z,100.00
2023-02-24T02:05:52.202Z,100.00
2023-02-24T02:08:23.703Z,100.00
2023-02-24T02:10:58.914Z,100.00
2023-02-24T02:13:28.166Z,100.00
2023-02-24T02:16:14.557Z,100.00
2023-02-24T02:18:56.406Z,100.00
2023-02-24T02:21:44.175Z,100.00
2023-02-24T02:24:30.670Z,100.00
2023-02-24T02:27:29.434Z,100.00
2023-02-24T02:30:32.125Z,100.00
2023-02-24T02:33:08.791Z,100.00
2023-02-24T02:35:42.841Z,100.00
2023-02-24T02:38:27.871Z,100.00
2023-02-24T02:41:11.246Z,100.00
2023-02-24T02:44:08.813Z,100.00
2023-02-24T02:46:51.425Z,100.00
2023-02-24T02:49:36.010Z,100.00
2023-02-24T02:52:10.528Z,100.00
2023-02-24T02:54:49.839Z,100.00
2023-02-24T02:57:23.901Z,100.00
2023-02-24T03:00:21.629Z,100.00
2023-02-24T03:02:56.216Z,100.00
2023-02-24T03:05:37.327Z,100.00
2023-02-24T03:08:11.580Z,100.00
2023-02-24T03:10:41.904Z,100.00
2023-02-24T03:13:13.407Z,100.00
2023-02-24T03:15:44.869Z,100.00
2023-02-24T03:18:29.176Z,100.00
2023-02-24T03:21:07.973Z,100.00
2023-02-24T03:23:46.135Z,100.00
2023-02-24T03:26:31.084Z,100.00
2023-02-24T03:29:19.275Z,100.00
2023-02-24T03:31:59.529Z,100.00
2023-02-24T03:34:59.599Z,100.00
2023-02-24T03:37:30.074Z,100.00
2023-02-24T03:40:08.377Z,100.00
2023-02-24T03:42:37.060Z,100.00
2023-02-24T03:45:06.832Z,100.00
2023-02-24T03:47:35.839Z,100.00
2023-02-24T03:50:13.422Z,100.00
2023-02-24T03:53:07.780Z,100.00
2023-02-24T03:55:48.185Z,100.00
2023-02-24T03:58:16.452Z,100.00
2023-02-24T04:01:05.676Z,100.00
2023-02-24T04:03:57.855Z,100.00
2023-02-24T04:06:51.508Z,100.00
2023-02-24T04:09:47.439Z,100.00
2023-02-24T04:12:32.271Z,100.00
2023-02-24T04:15:57.356Z,100.00
2023-02-24T04:18:34.917Z,100.00
2023-02-24T04:21:05.541Z,100.00
2023-02-24T04:23:43.761Z,100.00
2023-02-24T04:26:16.541Z,100.00
2023-02-24T04:28:48.615Z,100.00
2023-02-24T04:31:19.549Z,100.00
2023-02-24T04:33:50.520Z,100.00
2023-02-24T04:36:22.040Z,100.00
2023-02-24T04:38:50.287Z,100.00
2023-02-24T04:41:21.701Z,100.00
2023-02-24T04:43:50.969Z,100.00
2023-02-24T04:46:20.323Z,100.00
2023-02-24T04:48:47.902Z,100.00
2023-02-24T04:51:15.776Z,100.00
2023-02-24T04:53:43.923Z,100.00
2023-02-24T04:56:12.191Z,100.00
2023-02-24T04:58:41.228Z,100.00
2023-02-24T05:01:11.136Z,100.00
2023-02-24T05:03:43.348Z,100.00
2023-02-24T05:06:17.210Z,100.00
2023-02-24T05:08:45.704Z,100.00
2023-02-24T05:11:16.202Z,100.00
2023-02-24T05:13:46.196Z,100.00
2023-02-24T05:16:17.531Z,100.00
2023-02-24T05:18:45.633Z,100.00
2023-02-24T05:21:34.924Z,100.00
2023-02-24T05:24:11.317Z,100.00
2023-02-24T05:26:41.832Z,100.00
2023-02-24T05:29:12.565Z,100.00
2023-02-24T05:31:40.218Z,100.00
2023-02-24T05:34:09.080Z,100.00
2023-02-24T05:36:40.343Z,100.00
2023-02-24T05:39:14.626Z,100.00
2023-02-24T05:41:43.829Z,100.00
2023-02-24T05:44:14.251Z,100.00
2023-02-24T05:46:45.378Z,100.00
2023-02-24T05:49:23.545Z,100.00
2023-02-24T05:51:55.257Z,100.00
2023-02-24T05:54:32.179Z,100.00
2023-02-24T05:57:09.414Z,100.00
2023-02-24T05:59:38.712Z,100.00
2023-02-24T06:02:09.494Z,100.00
2023-02-24T06:04:40.015Z,100.00
2023-02-24T06:07:19.215Z,100.00
2023-02-24T06:09:53.604Z,100.00
2023-02-24T06:12:24.163Z,100.00
2023-02-24T06:14:53.172Z,100.00
2023-02-24T06:17:22.949Z,100.00
2023-02-24T06:19:52.815Z,100.00
2023-02-24T06:22:22.976Z,100.00
2023-02-24T06:24:50.653Z,100.00
2023-02-24T06:27:21.566Z,100.00
2023-02-24T06:29:51.173Z,100.00
2023-02-24T06:32:23.683Z,100.00
2023-02-24T06:34:52.060Z,100.00
2023-02-24T06:37:20.463Z,100.00
2023-02-24T06:39:48.486Z,100.00
2023-02-24T06:42:16.605Z,100.00
2023-02-24T06:44:44.090Z,100.00
2023-02-24T06:47:14.388Z,100.00
2023-02-24T06:49:45.016Z,100.00
2023-02-24T06:52:18.588Z,100.00
2023-02-24T06:54:49.755Z,100.00
2023-02-24T06:57:18.082Z,100.00
2023-02-24T06:59:46.326Z,100.00
2023-02-24T07:02:14.171Z,100.00
2023-02-24T07:04:44.149Z,100.00
2023-02-24T07:07:14.608Z,100.00
2023-02-24T07:09:45.429Z,100.00
2023-02-24T07:12:13.674Z,100.00
2023-02-24T07:14:41.742Z,100.00
2023-02-24T07:17:10.361Z,100.00
2023-02-24T07:19:38.156Z,100.00
2023-02-24T07:22:06.173Z,100.00
2023-02-24T07:24:37.327Z,100.00
2023-02-24T07:27:12.644Z,100.00
2023-02-24T07:29:40.591Z,100.00
2023-02-24T07:32:09.643Z,100.00
2023-02-24T07:34:40.676Z,100.00
2023-02-24T07:37:09.745Z,100.00
2023-02-24T07:39:39.499Z,100.00
2023-02-24T07:42:10.107Z,100.00
2023-02-24T07:44:46.907Z,100.00
2023-02-24T07:47:16.274Z,100.00
2023-02-24T07:49:45.404Z,100.00
2023-02-24T07:52:14.340Z,100.00
2023-02-24T07:54:43.274Z,100.00
2023-02-24T07:57:14.207Z,100.00
2023-02-24T07:59:45.130Z,100.00
2023-02-24T08:02:13.924Z,100.00
2023-02-24T08:04:44.627Z,100.00
2023-02-24T08:07:14.632Z,100.00
2023-02-24T08:09:45.870Z,100.00
2023-02-24T08:12:18.497Z,100.00
2023-02-24T08:14:51.609Z,100.00
2023-02-24T08:17:23.100Z,100.00
2023-02-24T08:20:12.636Z,100.00
2023-02-24T08:22:44.293Z,100.00
2023-02-24T08:25:18.750Z,100.00
2023-02-24T08:28:06.734Z,100.00
2023-02-24T08:30:40.294Z,100.00
2023-02-24T08:33:16.133Z,100.00
2023-02-24T08:35:46.763Z,100.00
2023-02-24T08:38:19.899Z,100.00
2023-02-24T08:40:55.173Z,100.00
2023-02-24T08:43:34.531Z,100.00
2023-02-24T08:46:25.618Z,100.00
2023-02-24T08:49:00.876Z,100.00
2023-02-24T08:51:34.875Z,100.00
2023-02-24T08:54:11.009Z,100.00
2023-02-24T08:56:43.708Z,100.00
2023-02-24T08:59:32.105Z,100.00
2023-02-24T09:02:32.355Z,100.00
2023-02-24T09:05:07.960Z,100.00
2023-02-24T09:07:39.014Z,100.00
2023-02-24T09:10:11.963Z,100.00
2023-02-24T09:12:42.504Z,100.00
2023-02-24T09:15:12.021Z,100.00
2023-02-24T09:17:45.602Z,100.00
2023-02-24T09:20:27.760Z,100.00
2023-02-24T09:23:03.338Z,100.00
2023-02-24T09:25:41.682Z,100.00
2023-02-24T09:28:11.085Z,100.00
2023-02-24T09:30:51.445Z,100.00
2023-02-24T09:33:29.058Z,100.00
2023-02-24T09:36:13.082Z,100.00
2023-02-24T09:39:06.964Z,100.00
2023-02-24T09:41:56.318Z,100.00
2023-02-24T09:44:40.431Z,100.00
2023-02-24T09:47:45.332Z,100.00
2023-02-24T09:50:59.120Z,100.00
2023-02-24T09:53:18.877Z,100.00
2023-02-24T09:56:22.248Z,100.00
2023-02-24T09:58:58.617Z,100.00
2023-02-24T10:01:49.679Z,100.00
2023-02-24T10:04:23.033Z,100.00
2023-02-24T10:06:58.969Z,100.00
2023-02-24T10:09:35.161Z,100.00
2023-02-24T10:12:40.215Z,100.00
2023-02-24T10:15:19.155Z,100.00
2023-02-24T10:18:27.322Z,100.00
2023-02-24T10:21:04.132Z,96.53
2023-02-24T10:23:47.491Z,90.96
2023-02-24T10:26:34.843Z,94.49
2023-02-24T10:29:29.517Z,89.42
2023-02-24T10:32:23.956Z,79.13
2023-02-24T10:34:53.740Z,77.59
2023-02-24T10:37:28.986Z,80.30
2023-02-24T10:40:09.783Z,84.77
2023-02-24T10:42:46.011Z,82.93
2023-02-24T10:45:25.212Z,88.54
2023-02-24T10:47:58.426Z,89.21
2023-02-24T10:50:26.200Z,93.30
2023-02-24T10:53:05.867Z,92.01
2023-02-24T10:55:45.538Z,93.08
2023-02-24T10:58:28.339Z,96.42
2023-02-24T11:01:07.075Z,96.12
2023-02-24T11:03:42.573Z,99.21
2023-02-24T11:06:30.929Z,91.68
2023-02-24T11:09:19.454Z,93.70
2023-02-24T11:12:06.867Z,92.05
2023-02-24T11:15:06.047Z,86.56
2023-02-24T11:17:37.009Z,74.07
2023-02-24T11:20:11.034Z,71.38
2023-02-24T11:22:42.123Z,81.18
2023-02-24T11:25:21.004Z,73.70
2023-02-24T11:27:49.278Z,68.20
2023-02-24T11:30:26.688Z,70.02
2023-02-24T11:33:00.518Z,72.19
2023-02-24T11:35:37.795Z,74.45
2023-02-24T11:38:37.566Z,79.40
2023-02-24T11:41:26.185Z,82.46
2023-02-24T11:44:04.176Z,77.78
2023-02-24T11:46:42.081Z,77.80
2023-02-24T11:49:45.667Z,74.42
2023-02-24T11:52:27.403Z,75.30
2023-02-24T11:54:58.394Z,72.22
2023-02-24T11:57:48.281Z,66.54
2023-02-24T12:00:23.555Z,65.50
2023-02-24T12:03:02.197Z,62.13
2023-02-24T12:05:39.200Z,59.54
2023-02-24T12:08:09.834Z,58.82
2023-02-24T12:10:51.013Z,63.79
2023-02-24T12:13:30.355Z,64.39
2023-02-24T12:16:07.997Z,66.40
2023-02-24T12:18:40.997Z,64.09
2023-02-24T12:21:13.224Z,60.33
2023-02-24T12:23:44.391Z,60.32
2023-02-24T12:26:28.467Z,63.23
2023-02-24T12:29:02.529Z,61.32
2023-02-24T12:31:52.219Z,64.89
2023-02-24T12:34:31.963Z,65.67
2023-02-24T12:37:08.025Z,65.04
2023-02-24T12:39:57.140Z,61.79
2023-02-24T12:43:17.524Z,59.67
2023-02-24T12:46:15.120Z,62.85
2023-02-24T12:49:34.952Z,65.24
2023-02-24T12:52:07.929Z,75.51
2023-02-24T12:54:51.108Z,83.07
2023-02-24T12:57:27.677Z,78.67
2023-02-24T12:59:58.088Z,72.19
2023-02-24T13:03:06.592Z,61.98
2023-02-24T13:05:52.220Z,57.74
2023-02-24T13:09:08.573Z,55.03
2023-02-24T13:11:39.258Z,53.61
2023-02-24T13:14:20.642Z,54.24
2023-02-24T13:16:49.086Z,68.13
2023-02-24T13:19:29.567Z,69.55
2023-02-24T13:22:03.605Z,67.41
2023-02-24T13:24:32.896Z,68.84
2023-02-24T13:27:21.179Z,64.90
2023-02-24T13:29:58.093Z,60.32
2023-02-24T13:32:33.175Z,64.56
2023-02-24T13:35:07.825Z,54.92
2023-02-24T13:37:38.737Z,51.03
2023-02-24T13:40:16.631Z,54.65
2023-02-24T13:43:01.257Z,49.85
2023-02-24T13:45:37.437Z,56.18
2023-02-24T13:48:24.105Z,63.04
2023-02-24T13:51:08.238Z,65.28
2023-02-24T13:53:38.488Z,70.02
2023-02-24T13:56:31.286Z,71.34
2023-02-24T13:59:24.260Z,66.46
2023-02-24T14:02:00.115Z,62.63
2023-02-24T14:04:31.236Z,57.22
2023-02-24T14:07:09.058Z,55.99
2023-02-24T14:09:43.299Z,56.89
2023-02-24T14:12:29.885Z,53.59
2023-02-24T14:14:58.050Z,52.57
2023-02-24T14:17:32.130Z,52.64
2023-02-24T14:20:14.358Z,54.85
2023-02-24T14:22:50.483Z,56.51
2023-02-24T14:25:18.260Z,62.12
2023-02-24T14:27:50.390Z,66.59
2023-02-24T14:30:34.196Z,67.49
2023-02-24T14:33:03.488Z,68.58
2023-02-24T14:35:41.938Z,70.62
2023-02-24T14:38:36.061Z,70.10
2023-02-24T14:41:25.435Z,72.44
2023-02-24T14:43:54.395Z,74.07
2023-02-24T14:46:23.809Z,79.24
2023-02-24T14:48:55.133Z,81.45
2023-02-24T14:51:28.259Z,81.68
2023-02-24T14:53:59.977Z,82.64
2023-02-24T14:56:32.887Z,80.81
2023-02-24T14:59:25.161Z,80.74
2023-02-24T15:01:55.823Z,80.85
2023-02-24T15:04:36.910Z,79.21
2023-02-24T15:07:08.464Z,81.07
2023-02-24T15:09:42.494Z,81.59
2023-02-24T15:12:13.140Z,81.98
2023-02-24T15:14:43.591Z,82.56
2023-02-24T15:17:17.246Z,82.25
2023-02-24T15:19:54.413Z,84.79
2023-02-24T15:22:28.994Z,83.97
2023-02-24T15:25:18.989Z,82.86
2023-02-24T15:27:56.289Z,81.40
2023-02-24T15:30:36.653Z,80.22
2023-02-24T15:33:19.582Z,79.30
2023-02-24T15:35:51.995Z,80.24
2023-02-24T15:38:26.134Z,81.36
2023-02-24T15:40:57.391Z,81.14
2023-02-24T15:43:34.420Z,81.09
2023-02-24T15:46:13.711Z,82.63
2023-02-24T15:48:53.298Z,82.81
2023-02-24T15:51:45.432Z,83.76
2023-02-24T15:54:16.861Z,83.53
2023-02-24T15:56:46.650Z,84.63
2023-02-24T15:59:16.455Z,85.26
2023-02-24T16:01:44.671Z,84.11
2023-02-24T16:04:12.331Z,84.02
2023-02-24T16:06:43.961Z,85.93
2023-02-24T16:09:16.809Z,85.55
2023-02-24T16:11:47.308Z,86.11
2023-02-24T16:14:18.570Z,86.36
2023-02-24T16:16:46.576Z,86.44
2023-02-24T16:19:15.864Z,87.11
2023-02-24T16:21:44.380Z,90.40
2023-02-24T16:24:13.041Z,90.91
2023-02-24T16:26:41.866Z,89.43
2023-02-24T16:29:15.289Z,90.63
2023-02-24T16:31:43.461Z,93.02
2023-02-24T16:34:15.000Z,93.99
2023-02-24T16:36:44.062Z,92.45
2023-02-24T16:39:14.857Z,94.58
2023-02-24T16:41:42.960Z,95.50
2023-02-24T16:44:10.943Z,94.47
2023-02-24T16:46:41.293Z,95.43
2023-02-24T16:49:10.690Z,96.33
2023-02-24T16:51:40.552Z,96.57
2023-02-24T16:54:08.802Z,97.44
2023-02-24T16:56:36.609Z,97.43
2023-02-24T16:59:05.149Z,98.21
2023-02-24T17:01:33.928Z,98.82
2023-02-24T17:04:05.263Z,100.00
2023-02-24T17:06:33.860Z,100.00
2023-02-24T17:09:02.821Z,100.00
2023-02-24T17:11:30.929Z,99.91
2023-02-24T17:13:59.893Z,99.61
2023-02-24T17:16:28.618Z,100.00
2023-02-24T17:18:56.859Z,100.00
2023-02-24T17:21:25.251Z,100.00
2023-02-24T17:23:52.853Z,100.00
2023-02-24T17:26:21.477Z,100.00
2023-02-24T17:28:49.869Z,100.00
2023-02-24T17:31:17.586Z,100.00
2023-02-24T17:33:46.049Z,100.00
2023-02-24T17:36:13.701Z,100.00
2023-02-24T17:38:41.216Z,100.00
2023-02-24T17:41:09.204Z,100.00
2023-02-24T17:43:37.025Z,100.00
2023-02-24T17:46:07.150Z,100.00
2023-02-24T17:48:35.422Z,100.00
2023-02-24T17:51:03.258Z,100.00
2023-02-24T17:53:31.851Z,100.00
2023-02-24T17:56:05.505Z,100.00
2023-02-24T17:58:33.558Z,100.00
2023-02-24T18:01:02.620Z,100.00
2023-02-24T18:03:32.629Z,100.00
2023-02-24T18:06:05.393Z,100.00
2023-02-24T18:08:34.877Z,100.00
2023-02-24T18:11:03.957Z,100.00
2023-02-24T18:13:33.437Z,100.00
2023-02-24T18:16:02.184Z,100.00
2023-02-24T18:18:30.478Z,100.00
2023-02-24T18:21:02.943Z,100.00
2023-02-24T18:23:32.233Z,100.00
2023-02-24T18:26:04.953Z,100.00
2023-02-24T18:28:33.447Z,100.00
2023-02-24T18:31:03.276Z,100.00
2023-02-24T18:33:31.105Z,100.00
2023-02-24T18:36:00.710Z,100.00
2023-02-24T18:38:29.592Z,100.00
2023-02-24T18:41:15.696Z,100.00
2023-02-24T18:43:43.527Z,100.00
2023-02-24T18:46:14.073Z,100.00
2023-02-24T18:48:44.558Z,100.00
2023-02-24T18:51:14.931Z,100.00
2023-02-24T18:53:43.441Z,100.00
2023-02-24T18:56:17.757Z,100.00
2023-02-24T18:58:47.025Z,100.00
2023-02-24T19:01:21.183Z,100.00
2023-02-24T19:03:51.111Z,100.00
2023-02-24T19:06:21.547Z,100.00
2023-02-24T19:08:55.288Z,100.00
2023-02-24T19:11:23.151Z,100.00
2023-02-24T19:13:52.048Z,100.00
2023-02-24T19:16:20.461Z,100.00
2023-02-24T19:18:53.489Z,100.00
2023-02-24T19:21:21.844Z,100.00
2023-02-24T19:23:49.414Z,100.00
2023-02-24T19:26:21.281Z,100.00
2023-02-24T19:28:49.122Z,100.00
2023-02-24T19:31:23.667Z,100.00
2023-02-24T19:33:57.362Z,100.00
2023-02-24T19:36:25.569Z,100.00
2023-02-24T19:38:54.346Z,100.00
2023-02-24T19:41:21.934Z,100.00
2023-02-24T19:43:50.360Z,100.00
2023-02-24T19:46:19.079Z,100.00
2023-02-24T19:48:48.530Z,100.00
2023-02-24T19:51:23.029Z,100.00
2023-02-24T19:53:55.999Z,100.00
2023-02-24T19:56:29.401Z,100.00
2023-02-24T19:58:58.784Z,100.00
2023-02-24T20:01:27.960Z,100.00
2023-02-24T20:03:57.705Z,100.00
2023-02-24T20:06:31.241Z,100.00
2023-02-24T20:09:00.475Z,100.00
2023-02-24T20:11:29.892Z,100.00
2023-02-24T20:13:57.846Z,100.00
2023-02-24T20:16:27.284Z,100.00
2023-02-24T20:18:55.461Z,100.00
2023-02-24T20:21:23.874Z,100.00
2023-02-24T20:23:51.987Z,100.00
2023-02-24T20:26:21.185Z,100.00
2023-02-24T20:28:49.826Z,100.00
2023-02-24T20:31:19.597Z,100.00
2023-02-24T20:33:50.957Z,100.00
2023-02-24T20:36:23.812Z,100.00
2023-02-24T20:38:52.237Z,100.00
2023-02-24T20:41:21.909Z,100.00
2023-02-24T20:43:50.949Z,100.00
2023-02-24T20:46:29.398Z,100.00
2023-02-24T20:49:02.217Z,100.00
2023-02-24T20:51:31.733Z,100.00
2023-02-24T20:53:59.940Z,100.00
2023-02-24T20:56:33.106Z,100.00
2023-02-24T20:59:04.228Z,100.00
2023-02-24T21:01:33.638Z,100.00
2023-02-24T21:04:02.099Z,100.00
2023-02-24T21:06:30.863Z,100.00
2023-02-24T21:08:58.987Z,100.00
2023-02-24T21:11:29.797Z,100.00
2023-02-24T21:13:58.640Z,100.00
2023-02-24T21:16:28.257Z,100.00
2023-02-24T21:18:58.022Z,100.00
2023-02-24T21:21:26.648Z,100.00
2023-02-24T21:23:55.229Z,100.00
2023-02-24T21:26:26.718Z,100.00
2023-02-24T21:28:57.607Z,100.00
2023-02-24T21:31:27.414Z,100.00
2023-02-24T21:33:56.189Z,100.00
2023-02-24T21:36:25.860Z,100.00
2023-02-24T21:38:54.722Z,100.00
2023-02-24T21:41:23.886Z,100.00
2023-02-24T21:43:54.916Z,100.00
2023-02-24T21:46:28.259Z,100.00
2023-02-24T21:49:00.357Z,100.00
2023-02-24T21:51:28.311Z,100.00
2023-02-24T21:53:56.960Z,100.00
2023-02-24T21:56:28.640Z,100.00
2023-02-24T21:59:02.303Z,100.00
2023-02-24T22:01:39.790Z,100.00
2023-02-24T22:04:10.722Z,100.00
2023-02-24T22:06:40.757Z,100.00
2023-02-24T22:09:10.164Z,100.00
2023-02-24T22:11:41.038Z,100.00
2023-02-24T22:14:12.028Z,100.00
2023-02-24T22:16:40.819Z,100.00
2023-02-24T22:19:08.819Z,100.00
2023-02-24T22:21:39.238Z,100.00
2023-02-24T22:24:07.128Z,100.00
2023-02-24T22:26:34.729Z,100.00
2023-02-24T22:29:03.884Z,100.00
2023-02-24T22:31:33.203Z,100.00
2023-02-24T22:34:01.876Z,100.00
2023-02-24T22:36:33.570Z,100.00
2023-02-24T22:39:02.933Z,100.00
2023-02-24T22:41:33.262Z,100.00
2023-02-24T22:44:03.647Z,100.00
2023-02-24T22:46:37.472Z,100.00
2023-02-24T22:49:05.980Z,100.00
2023-02-24T22:51:34.119Z,100.00
2023-02-24T22:54:02.636Z,100.00
2023-02-24T22:56:31.249Z,100.00
2023-02-24T22:59:00.782Z,100.00
2023-02-24T23:01:30.950Z,100.00
2023-02-24T23:04:02.692Z,100.00
2023-02-24T23:06:31.480Z,100.00
2023-02-24T23:09:01.214Z,100.00
2023-02-24T23:11:32.426Z,100.00
2023-02-24T23:14:04.186Z,100.00
2023-02-24T23:16:34.565Z,100.00
2023-02-24T23:19:12.986Z,100.00
2023-02-24T23:21:43.255Z,100.00
2023-02-24T23:24:14.289Z,100.00
2023-02-24T23:26:45.894Z,100.00
2023-02-24T23:29:17.660Z,100.00
2023-02-24T23:31:46.594Z,100.00
2023-02-24T23:34:15.968Z,100.00
2023-02-24T23:36:46.482Z,100.00
2023-02-24T23:39:16.651Z,100.00
2023-02-24T23:41:44.392Z,100.00
2023-02-24T23:44:12.615Z,100.00
2023-02-24T23:46:41.848Z,100.00
2023-02-24T23:49:09.998Z,100.00
2023-02-24T23:51:48.105Z,100.00
2023-02-24T23:54:18.279Z,100.00
2023-02-24T23:56:46.902Z,100.00
2023-02-24T23:59:15.134Z,100.00
